sensor_id;sensor_type;location;lat;lon;timestamp;temperature;humidity
73777;DHT22;62088;50.240;2.696;2023-02-02T00:01:34;7.40;83.40
73777;DHT22;62088;50.240;2.696;2023-02-02T00:04:01;7.40;83.30
73777;DHT22;62088;50.240;2.696;2023-02-02T00:06:30;7.40;83.30
73777;DHT22;62088;50.240;2.696;2023-02-02T00:08:59;7.40;83.20
73777;DHT22;62088;50.240;2.696;2023-02-02T00:11:26;7.40;83.10
73777;DHT22;62088;50.240;2.696;2023-02-02T00:13:53;7.40;83.00
73777;DHT22;62088;50.240;2.696;2023-02-02T00:18:58;7.40;83.00
73777;DHT22;62088;50.240;2.696;2023-02-02T00:21:26;7.40;82.90
73777;DHT22;62088;50.240;2.696;2023-02-02T00:23:54;7.50;82.80
73777;DHT22;62088;50.240;2.696;2023-02-02T00:26:21;7.40;82.80
73777;DHT22;62088;50.240;2.696;2023-02-02T00:28:48;7.40;82.70
73777;DHT22;62088;50.240;2.696;2023-02-02T00:31:15;7.40;82.70
73777;DHT22;62088;50.240;2.696;2023-02-02T00:33:47;7.40;82.70
73777;DHT22;62088;50.240;2.696;2023-02-02T00:36:15;7.50;82.70
73777;DHT22;62088;50.240;2.696;2023-02-02T00:38:42;7.50;82.60
73777;DHT22;62088;50.240;2.696;2023-02-02T00:41:09;7.50;82.70
73777;DHT22;62088;50.240;2.696;2023-02-02T00:43:36;7.50;82.70
73777;DHT22;62088;50.240;2.696;2023-02-02T00:46:03;7.50;82.70
73777;DHT22;62088;50.240;2.696;2023-02-02T00:48:31;7.50;82.70
73777;DHT22;62088;50.240;2.696;2023-02-02T00:50:59;7.50;82.70
73777;DHT22;62088;50.240;2.696;2023-02-02T00:53:28;7.50;82.70
73777;DHT22;62088;50.240;2.696;2023-02-02T00:55:56;7.50;82.70
73777;DHT22;62088;50.240;2.696;2023-02-02T00:58:22;7.50;82.70
73777;DHT22;62088;50.240;2.696;2023-02-02T01:00:50;7.50;82.80
73777;DHT22;62088;50.240;2.696;2023-02-02T01:03:18;7.50;82.80
73777;DHT22;62088;50.240;2.696;2023-02-02T01:05:45;7.50;82.70
73777;DHT22;62088;50.240;2.696;2023-02-02T01:08:12;7.50;82.70
73777;DHT22;62088;50.240;2.696;2023-02-02T01:10:39;7.60;82.70
73777;DHT22;62088;50.240;2.696;2023-02-02T01:13:06;7.60;82.70
73777;DHT22;62088;50.240;2.696;2023-02-02T01:15:33;7.60;82.70
73777;DHT22;62088;50.240;2.696;2023-02-02T01:18:00;7.60;82.70
73777;DHT22;62088;50.240;2.696;2023-02-02T01:20:27;7.60;82.70
73777;DHT22;62088;50.240;2.696;2023-02-02T01:22:55;7.60;82.60
73777;DHT22;62088;50.240;2.696;2023-02-02T01:25:22;7.60;82.60
73777;DHT22;62088;50.240;2.696;2023-02-02T01:27:50;7.60;82.60
73777;DHT22;62088;50.240;2.696;2023-02-02T01:30:17;7.60;82.60
73777;DHT22;62088;50.240;2.696;2023-02-02T01:32:44;7.60;82.60
73777;DHT22;62088;50.240;2.696;2023-02-02T01:35:11;7.60;82.60
73777;DHT22;62088;50.240;2.696;2023-02-02T01:37:38;7.60;82.60
73777;DHT22;62088;50.240;2.696;2023-02-02T01:40:06;7.60;82.60
73777;DHT22;62088;50.240;2.696;2023-02-02T01:42:33;7.60;82.60
73777;DHT22;62088;50.240;2.696;2023-02-02T01:47:50;7.70;82.60
73777;DHT22;62088;50.240;2.696;2023-02-02T01:50:18;7.60;82.60
73777;DHT22;62088;50.240;2.696;2023-02-02T01:52:48;7.60;82.60
73777;DHT22;62088;50.240;2.696;2023-02-02T01:55:19;7.60;82.70
73777;DHT22;62088;50.240;2.696;2023-02-02T01:58:32;7.60;82.70
73777;DHT22;62088;50.240;2.696;2023-02-02T02:00:39;7.60;82.70
73777;DHT22;62088;50.240;2.696;2023-02-02T02:03:11;7.60;82.70
73777;DHT22;62088;50.240;2.696;2023-02-02T02:05:53;7.60;82.70
73777;DHT22;62088;50.240;2.696;2023-02-02T02:08:28;7.60;82.70
73777;DHT22;62088;50.240;2.696;2023-02-02T02:10:57;7.60;82.70
73777;DHT22;62088;50.240;2.696;2023-02-02T02:13:26;7.70;82.70
73777;DHT22;62088;50.240;2.696;2023-02-02T02:16:24;7.70;82.70
73777;DHT22;62088;50.240;2.696;2023-02-02T02:22:12;7.70;82.70
73777;DHT22;62088;50.240;2.696;2023-02-02T02:34:15;7.60;82.80
73777;DHT22;62088;50.240;2.696;2023-02-02T02:37:35;7.70;82.80
73777;DHT22;62088;50.240;2.696;2023-02-02T02:40:08;7.70;82.70
73777;DHT22;62088;50.240;2.696;2023-02-02T02:42:40;7.70;82.70
73777;DHT22;62088;50.240;2.696;2023-02-02T02:45:11;7.70;82.70
73777;DHT22;62088;50.240;2.696;2023-02-02T02:47:40;7.70;82.70
73777;DHT22;62088;50.240;2.696;2023-02-02T02:50:08;7.70;82.70
73777;DHT22;62088;50.240;2.696;2023-02-02T02:52:36;7.70;82.70
73777;DHT22;62088;50.240;2.696;2023-02-02T02:55:05;7.70;82.70
73777;DHT22;62088;50.240;2.696;2023-02-02T02:57:45;7.70;82.80
73777;DHT22;62088;50.240;2.696;2023-02-02T03:00:31;7.70;82.80
73777;DHT22;62088;50.240;2.696;2023-02-02T03:10:47;7.70;82.80
73777;DHT22;62088;50.240;2.696;2023-02-02T03:13:15;7.70;82.80
73777;DHT22;62088;50.240;2.696;2023-02-02T03:15:43;7.70;82.80
73777;DHT22;62088;50.240;2.696;2023-02-02T03:18:13;7.80;82.80
73777;DHT22;62088;50.240;2.696;2023-02-02T03:20:42;7.80;82.80
73777;DHT22;62088;50.240;2.696;2023-02-02T03:23:10;7.80;82.80
73777;DHT22;62088;50.240;2.696;2023-02-02T03:25:38;7.70;82.80
73777;DHT22;62088;50.240;2.696;2023-02-02T03:28:06;7.70;82.80
73777;DHT22;62088;50.240;2.696;2023-02-02T03:30:33;7.70;82.80
73777;DHT22;62088;50.240;2.696;2023-02-02T03:33:00;7.80;82.80
73777;DHT22;62088;50.240;2.696;2023-02-02T03:35:27;7.80;82.80
73777;DHT22;62088;50.240;2.696;2023-02-02T03:37:54;7.70;82.80
73777;DHT22;62088;50.240;2.696;2023-02-02T03:40:22;7.80;82.90
73777;DHT22;62088;50.240;2.696;2023-02-02T03:42:49;7.80;82.90
73777;DHT22;62088;50.240;2.696;2023-02-02T03:45:16;7.80;82.90
73777;DHT22;62088;50.240;2.696;2023-02-02T03:47:43;7.70;82.90
73777;DHT22;62088;50.240;2.696;2023-02-02T03:50:11;7.70;82.90
73777;DHT22;62088;50.240;2.696;2023-02-02T03:52:38;7.80;82.90
73777;DHT22;62088;50.240;2.696;2023-02-02T03:55:05;7.70;82.90
73777;DHT22;62088;50.240;2.696;2023-02-02T03:57:33;7.80;82.90
73777;DHT22;62088;50.240;2.696;2023-02-02T04:00:00;7.80;82.90
73777;DHT22;62088;50.240;2.696;2023-02-02T04:02:27;7.70;82.90
73777;DHT22;62088;50.240;2.696;2023-02-02T04:04:54;7.80;83.00
73777;DHT22;62088;50.240;2.696;2023-02-02T04:07:21;7.80;83.00
73777;DHT22;62088;50.240;2.696;2023-02-02T04:09:48;7.80;83.00
73777;DHT22;62088;50.240;2.696;2023-02-02T04:12:15;7.70;83.00
73777;DHT22;62088;50.240;2.696;2023-02-02T04:14:42;7.70;83.00
73777;DHT22;62088;50.240;2.696;2023-02-02T04:17:09;7.80;83.00
73777;DHT22;62088;50.240;2.696;2023-02-02T04:19:37;7.80;83.00
73777;DHT22;62088;50.240;2.696;2023-02-02T04:22:04;7.80;83.00
73777;DHT22;62088;50.240;2.696;2023-02-02T04:24:31;7.70;83.00
73777;DHT22;62088;50.240;2.696;2023-02-02T04:26:58;7.80;83.00
73777;DHT22;62088;50.240;2.696;2023-02-02T04:29:25;7.70;83.00
73777;DHT22;62088;50.240;2.696;2023-02-02T04:31:52;7.80;83.10
73777;DHT22;62088;50.240;2.696;2023-02-02T04:34:19;7.80;83.10
73777;DHT22;62088;50.240;2.696;2023-02-02T04:36:46;7.80;83.10
73777;DHT22;62088;50.240;2.696;2023-02-02T04:39:13;7.80;83.10
73777;DHT22;62088;50.240;2.696;2023-02-02T04:41:40;7.80;83.10
73777;DHT22;62088;50.240;2.696;2023-02-02T04:44:12;7.80;83.10
73777;DHT22;62088;50.240;2.696;2023-02-02T04:46:42;7.80;83.20
73777;DHT22;62088;50.240;2.696;2023-02-02T04:49:10;7.80;83.10
73777;DHT22;62088;50.240;2.696;2023-02-02T04:51:38;7.80;83.10
73777;DHT22;62088;50.240;2.696;2023-02-02T04:54:06;7.80;83.10
73777;DHT22;62088;50.240;2.696;2023-02-02T04:56:34;7.80;83.10
73777;DHT22;62088;50.240;2.696;2023-02-02T04:59:01;7.80;83.10
73777;DHT22;62088;50.240;2.696;2023-02-02T05:01:28;7.80;83.10
73777;DHT22;62088;50.240;2.696;2023-02-02T05:03:57;7.80;83.10
73777;DHT22;62088;50.240;2.696;2023-02-02T05:06:24;7.80;83.10
73777;DHT22;62088;50.240;2.696;2023-02-02T05:08:51;7.80;83.10
73777;DHT22;62088;50.240;2.696;2023-02-02T05:11:22;7.80;83.10
73777;DHT22;62088;50.240;2.696;2023-02-02T05:13:51;7.80;83.00
73777;DHT22;62088;50.240;2.696;2023-02-02T05:16:20;7.80;83.00
73777;DHT22;62088;50.240;2.696;2023-02-02T05:18:53;7.80;83.00
73777;DHT22;62088;50.240;2.696;2023-02-02T05:21:21;7.80;83.00
73777;DHT22;62088;50.240;2.696;2023-02-02T05:23:48;7.80;83.00
73777;DHT22;62088;50.240;2.696;2023-02-02T05:26:23;7.80;82.90
73777;DHT22;62088;50.240;2.696;2023-02-02T05:28:51;7.80;82.90
73777;DHT22;62088;50.240;2.696;2023-02-02T05:31:19;7.80;82.90
73777;DHT22;62088;50.240;2.696;2023-02-02T05:33:46;7.80;82.90
73777;DHT22;62088;50.240;2.696;2023-02-02T05:36:13;7.80;82.90
73777;DHT22;62088;50.240;2.696;2023-02-02T05:38:40;7.70;82.80
73777;DHT22;62088;50.240;2.696;2023-02-02T05:41:07;7.80;82.80
73777;DHT22;62088;50.240;2.696;2023-02-02T05:43:34;7.70;82.80
73777;DHT22;62088;50.240;2.696;2023-02-02T05:46:01;7.80;82.80
73777;DHT22;62088;50.240;2.696;2023-02-02T05:48:28;7.70;82.80
73777;DHT22;62088;50.240;2.696;2023-02-02T05:53:36;7.70;82.80
73777;DHT22;62088;50.240;2.696;2023-02-02T05:56:03;7.70;82.80
73777;DHT22;62088;50.240;2.696;2023-02-02T05:58:30;7.70;82.80
73777;DHT22;62088;50.240;2.696;2023-02-02T06:00:57;7.70;82.80
73777;DHT22;62088;50.240;2.696;2023-02-02T06:03:24;7.70;82.70
73777;DHT22;62088;50.240;2.696;2023-02-02T06:05:51;7.70;82.70
73777;DHT22;62088;50.240;2.696;2023-02-02T06:08:18;7.70;82.70
73777;DHT22;62088;50.240;2.696;2023-02-02T06:10:45;7.70;82.70
73777;DHT22;62088;50.240;2.696;2023-02-02T06:13:12;7.70;82.70
73777;DHT22;62088;50.240;2.696;2023-02-02T06:15:39;7.70;82.70
73777;DHT22;62088;50.240;2.696;2023-02-02T06:18:09;7.70;82.70
73777;DHT22;62088;50.240;2.696;2023-02-02T06:20:36;7.70;82.70
73777;DHT22;62088;50.240;2.696;2023-02-02T06:23:03;7.70;82.80
73777;DHT22;62088;50.240;2.696;2023-02-02T06:25:31;7.70;82.80
73777;DHT22;62088;50.240;2.696;2023-02-02T06:27:59;7.70;82.90
73777;DHT22;62088;50.240;2.696;2023-02-02T06:30:27;7.70;83.00
73777;DHT22;62088;50.240;2.696;2023-02-02T06:32:54;7.70;83.10
73777;DHT22;62088;50.240;2.696;2023-02-02T06:35:21;7.70;83.20
73777;DHT22;62088;50.240;2.696;2023-02-02T06:37:48;7.70;83.30
73777;DHT22;62088;50.240;2.696;2023-02-02T06:40:16;7.70;83.40
73777;DHT22;62088;50.240;2.696;2023-02-02T06:42:43;7.70;83.40
73777;DHT22;62088;50.240;2.696;2023-02-02T06:45:10;7.70;83.50
73777;DHT22;62088;50.240;2.696;2023-02-02T06:47:37;7.70;83.60
73777;DHT22;62088;50.240;2.696;2023-02-02T06:50:05;7.70;83.50
73777;DHT22;62088;50.240;2.696;2023-02-02T06:52:32;7.70;83.60
73777;DHT22;62088;50.240;2.696;2023-02-02T06:54:59;7.70;83.60
73777;DHT22;62088;50.240;2.696;2023-02-02T06:57:26;7.70;83.60
73777;DHT22;62088;50.240;2.696;2023-02-02T06:59:53;7.80;83.50
73777;DHT22;62088;50.240;2.696;2023-02-02T07:02:20;7.80;83.50
73777;DHT22;62088;50.240;2.696;2023-02-02T07:04:49;7.80;83.50
73777;DHT22;62088;50.240;2.696;2023-02-02T07:07:16;7.80;83.40
73777;DHT22;62088;50.240;2.696;2023-02-02T07:09:43;7.80;83.40
73777;DHT22;62088;50.240;2.696;2023-02-02T07:12:10;7.80;83.40
73777;DHT22;62088;50.240;2.696;2023-02-02T07:14:37;7.80;83.30
73777;DHT22;62088;50.240;2.696;2023-02-02T07:17:04;7.80;83.20
73777;DHT22;62088;50.240;2.696;2023-02-02T07:19:31;7.80;83.10
73777;DHT22;62088;50.240;2.696;2023-02-02T07:21:59;7.80;83.00
73777;DHT22;62088;50.240;2.696;2023-02-02T07:24:26;7.80;82.80
73777;DHT22;62088;50.240;2.696;2023-02-02T07:26:53;7.80;82.80
73777;DHT22;62088;50.240;2.696;2023-02-02T07:29:20;7.80;82.70
73777;DHT22;62088;50.240;2.696;2023-02-02T07:31:47;7.80;82.40
73777;DHT22;62088;50.240;2.696;2023-02-02T07:34:15;7.80;82.30
73777;DHT22;62088;50.240;2.696;2023-02-02T07:36:42;7.80;82.20
73777;DHT22;62088;50.240;2.696;2023-02-02T07:39:10;7.80;82.10
73777;DHT22;62088;50.240;2.696;2023-02-02T07:41:37;7.80;82.00
73777;DHT22;62088;50.240;2.696;2023-02-02T07:44:14;7.90;81.80
73777;DHT22;62088;50.240;2.696;2023-02-02T07:46:45;7.80;81.70
73777;DHT22;62088;50.240;2.696;2023-02-02T07:49:15;7.90;81.70
73777;DHT22;62088;50.240;2.696;2023-02-02T07:51:42;7.80;81.50
73777;DHT22;62088;50.240;2.696;2023-02-02T07:54:14;7.90;81.40
73777;DHT22;62088;50.240;2.696;2023-02-02T07:56:41;7.90;81.30
73777;DHT22;62088;50.240;2.696;2023-02-02T07:59:09;7.90;81.20
73777;DHT22;62088;50.240;2.696;2023-02-02T08:01:37;7.90;81.20
73777;DHT22;62088;50.240;2.696;2023-02-02T08:04:04;7.90;81.20
73777;DHT22;62088;50.240;2.696;2023-02-02T08:06:34;7.90;81.10
73777;DHT22;62088;50.240;2.696;2023-02-02T08:09:04;7.90;81.00
73777;DHT22;62088;50.240;2.696;2023-02-02T08:11:35;7.90;80.90
73777;DHT22;62088;50.240;2.696;2023-02-02T08:14:03;7.90;80.80
73777;DHT22;62088;50.240;2.696;2023-02-02T08:16:31;7.90;80.50
73777;DHT22;62088;50.240;2.696;2023-02-02T08:18:59;7.90;80.30
73777;DHT22;62088;50.240;2.696;2023-02-02T08:21:27;7.90;80.30
73777;DHT22;62088;50.240;2.696;2023-02-02T08:23:54;7.90;80.20
73777;DHT22;62088;50.240;2.696;2023-02-02T08:26:24;7.90;80.10
73777;DHT22;62088;50.240;2.696;2023-02-02T08:28:54;8.00;80.10
73777;DHT22;62088;50.240;2.696;2023-02-02T08:31:29;8.00;80.00
73777;DHT22;62088;50.240;2.696;2023-02-02T08:33:56;8.00;79.90
73777;DHT22;62088;50.240;2.696;2023-02-02T08:36:26;8.00;79.90
73777;DHT22;62088;50.240;2.696;2023-02-02T08:38:53;8.00;79.80
73777;DHT22;62088;50.240;2.696;2023-02-02T08:41:22;8.00;79.80
73777;DHT22;62088;50.240;2.696;2023-02-02T08:43:50;8.00;79.70
73777;DHT22;62088;50.240;2.696;2023-02-02T08:46:18;8.00;79.70
73777;DHT22;62088;50.240;2.696;2023-02-02T08:48:47;8.00;79.60
73777;DHT22;62088;50.240;2.696;2023-02-02T08:51:17;8.10;79.60
73777;DHT22;62088;50.240;2.696;2023-02-02T08:53:44;8.10;79.40
73777;DHT22;62088;50.240;2.696;2023-02-02T08:56:16;8.10;79.40
73777;DHT22;62088;50.240;2.696;2023-02-02T08:58:51;8.10;79.40
73777;DHT22;62088;50.240;2.696;2023-02-02T09:01:26;8.10;79.40
73777;DHT22;62088;50.240;2.696;2023-02-02T09:03:55;8.10;79.30
73777;DHT22;62088;50.240;2.696;2023-02-02T09:06:30;8.20;79.20
73777;DHT22;62088;50.240;2.696;2023-02-02T09:08:57;8.20;79.20
73777;DHT22;62088;50.240;2.696;2023-02-02T09:11:25;8.20;79.00
73777;DHT22;62088;50.240;2.696;2023-02-02T09:13:57;8.20;78.90
73777;DHT22;62088;50.240;2.696;2023-02-02T09:16:25;8.30;78.80
73777;DHT22;62088;50.240;2.696;2023-02-02T09:18:54;8.20;78.80
73777;DHT22;62088;50.240;2.696;2023-02-02T09:21:22;8.30;78.80
73777;DHT22;62088;50.240;2.696;2023-02-02T09:23:50;8.30;78.80
73777;DHT22;62088;50.240;2.696;2023-02-02T09:26:27;8.40;78.70
73777;DHT22;62088;50.240;2.696;2023-02-02T09:28:55;8.30;78.70
73777;DHT22;62088;50.240;2.696;2023-02-02T09:31:23;8.40;78.70
73777;DHT22;62088;50.240;2.696;2023-02-02T09:33:51;8.40;78.60
73777;DHT22;62088;50.240;2.696;2023-02-02T09:36:20;8.40;78.60
73777;DHT22;62088;50.240;2.696;2023-02-02T09:38:49;8.40;78.60
73777;DHT22;62088;50.240;2.696;2023-02-02T09:44:16;8.50;78.50
73777;DHT22;62088;50.240;2.696;2023-02-02T09:52:20;8.70;78.10
73777;DHT22;62088;50.240;2.696;2023-02-02T09:54:51;8.70;78.00
73777;DHT22;62088;50.240;2.696;2023-02-02T09:57:24;8.80;77.90
73777;DHT22;62088;50.240;2.696;2023-02-02T09:59:53;8.90;77.70
73777;DHT22;62088;50.240;2.696;2023-02-02T10:02:30;8.90;77.70
73777;DHT22;62088;50.240;2.696;2023-02-02T10:05:12;9.00;77.20
73777;DHT22;62088;50.240;2.696;2023-02-02T10:07:44;9.10;77.00
73777;DHT22;62088;50.240;2.696;2023-02-02T10:10:17;9.10;76.80
73777;DHT22;62088;50.240;2.696;2023-02-02T10:15:49;9.30;76.40
73777;DHT22;62088;50.240;2.696;2023-02-02T10:20:57;9.50;76.20
73777;DHT22;62088;50.240;2.696;2023-02-02T10:23:38;9.60;76.00
73777;DHT22;62088;50.240;2.696;2023-02-02T10:29:27;9.80;75.70
73777;DHT22;62088;50.240;2.696;2023-02-02T10:35:25;10.00;75.20
73777;DHT22;62088;50.240;2.696;2023-02-02T10:38:16;10.10;75.00
73777;DHT22;62088;50.240;2.696;2023-02-02T10:40:52;10.20;74.50
73777;DHT22;62088;50.240;2.696;2023-02-02T10:43:47;10.30;73.70
73777;DHT22;62088;50.240;2.696;2023-02-02T10:46:24;10.40;73.80
73777;DHT22;62088;50.240;2.696;2023-02-02T10:49:07;10.50;73.80
73777;DHT22;62088;50.240;2.696;2023-02-02T10:51:37;10.60;73.10
73777;DHT22;62088;50.240;2.696;2023-02-02T10:56:53;10.70;73.30
73777;DHT22;62088;50.240;2.696;2023-02-02T10:59:29;10.80;72.90
73777;DHT22;62088;50.240;2.696;2023-02-02T11:01:57;10.90;72.70
73777;DHT22;62088;50.240;2.696;2023-02-02T11:04:41;10.90;72.30
73777;DHT22;62088;50.240;2.696;2023-02-02T11:07:26;11.00;72.30
73777;DHT22;62088;50.240;2.696;2023-02-02T11:09:53;11.10;71.80
73777;DHT22;62088;50.240;2.696;2023-02-02T11:12:30;11.10;71.90
73777;DHT22;62088;50.240;2.696;2023-02-02T11:17:29;11.20;71.90
73777;DHT22;62088;50.240;2.696;2023-02-02T11:19:56;11.20;71.60
73777;DHT22;62088;50.240;2.696;2023-02-02T11:22:30;11.10;71.20
73777;DHT22;62088;50.240;2.696;2023-02-02T11:25:20;11.10;71.50
73777;DHT22;62088;50.240;2.696;2023-02-02T11:27:52;11.00;71.70
73777;DHT22;62088;50.240;2.696;2023-02-02T11:30:32;11.00;72.00
73777;DHT22;62088;50.240;2.696;2023-02-02T11:33:28;10.90;72.10
73777;DHT22;62088;50.240;2.696;2023-02-02T11:38:28;10.90;72.30
73777;DHT22;62088;50.240;2.696;2023-02-02T11:41:02;10.80;72.30
73777;DHT22;62088;50.240;2.696;2023-02-02T11:43:34;10.70;72.50
73777;DHT22;62088;50.240;2.696;2023-02-02T11:46:24;10.70;72.80
73777;DHT22;62088;50.240;2.696;2023-02-02T11:49:00;10.60;73.00
73777;DHT22;62088;50.240;2.696;2023-02-02T11:51:29;10.60;73.30
73777;DHT22;62088;50.240;2.696;2023-02-02T11:54:05;10.50;73.80
73777;DHT22;62088;50.240;2.696;2023-02-02T11:56:35;10.40;74.30
73777;DHT22;62088;50.240;2.696;2023-02-02T11:59:03;10.40;74.70
73777;DHT22;62088;50.240;2.696;2023-02-02T12:01:32;10.40;75.00
73777;DHT22;62088;50.240;2.696;2023-02-02T12:04:21;10.40;75.10
73777;DHT22;62088;50.240;2.696;2023-02-02T12:06:49;10.40;75.50
73777;DHT22;62088;50.240;2.696;2023-02-02T12:09:20;10.40;75.70
73777;DHT22;62088;50.240;2.696;2023-02-02T12:17:46;10.40;76.60
73777;DHT22;62088;50.240;2.696;2023-02-02T12:34:21;10.40;77.90
73777;DHT22;62088;50.240;2.696;2023-02-02T12:40:00;10.30;78.40
73777;DHT22;62088;50.240;2.696;2023-02-02T12:48:33;10.20;79.00
73777;DHT22;62088;50.240;2.696;2023-02-02T13:00:12;10.00;80.00
73777;DHT22;62088;50.240;2.696;2023-02-02T13:03:23;9.90;80.30
73777;DHT22;62088;50.240;2.696;2023-02-02T13:09:12;9.90;80.50
73777;DHT22;62088;50.240;2.696;2023-02-02T13:11:41;9.90;80.60
73777;DHT22;62088;50.240;2.696;2023-02-02T13:14:16;9.90;80.70
73777;DHT22;62088;50.240;2.696;2023-02-02T13:16:49;9.90;80.80
73777;DHT22;62088;50.240;2.696;2023-02-02T13:19:28;9.90;80.90
73777;DHT22;62088;50.240;2.696;2023-02-02T13:21:58;9.90;81.10
73777;DHT22;62088;50.240;2.696;2023-02-02T13:24:29;9.90;81.10
73777;DHT22;62088;50.240;2.696;2023-02-02T13:27:03;9.90;81.10
73777;DHT22;62088;50.240;2.696;2023-02-02T13:29:44;9.90;81.20
73777;DHT22;62088;50.240;2.696;2023-02-02T13:32:33;9.90;81.30
73777;DHT22;62088;50.240;2.696;2023-02-02T13:35:22;9.90;81.30
73777;DHT22;62088;50.240;2.696;2023-02-02T13:37:52;9.90;81.30
73777;DHT22;62088;50.240;2.696;2023-02-02T13:40:39;9.90;81.30
73777;DHT22;62088;50.240;2.696;2023-02-02T13:46:07;9.90;81.40
73777;DHT22;62088;50.240;2.696;2023-02-02T14:00:12;9.90;81.60
73777;DHT22;62088;50.240;2.696;2023-02-02T14:02:43;9.90;81.50
73777;DHT22;62088;50.240;2.696;2023-02-02T14:05:33;9.90;81.40
73777;DHT22;62088;50.240;2.696;2023-02-02T14:08:05;9.90;81.40
73777;DHT22;62088;50.240;2.696;2023-02-02T14:10:41;9.90;81.40
73777;DHT22;62088;50.240;2.696;2023-02-02T14:13:56;9.90;81.30
73777;DHT22;62088;50.240;2.696;2023-02-02T14:16:21;9.90;81.30
73777;DHT22;62088;50.240;2.696;2023-02-02T14:29:35;9.90;81.10
73777;DHT22;62088;50.240;2.696;2023-02-02T14:38:05;10.00;81.00
73777;DHT22;62088;50.240;2.696;2023-02-02T14:40:46;10.00;81.00
73777;DHT22;62088;50.240;2.696;2023-02-02T14:43:29;9.90;80.90
73777;DHT22;62088;50.240;2.696;2023-02-02T14:48:46;10.00;81.00
73777;DHT22;62088;50.240;2.696;2023-02-02T14:51:24;9.90;81.10
73777;DHT22;62088;50.240;2.696;2023-02-02T14:54:01;9.90;81.20
73777;DHT22;62088;50.240;2.696;2023-02-02T14:59:17;9.90;81.30
73777;DHT22;62088;50.240;2.696;2023-02-02T15:01:59;9.90;81.40
73777;DHT22;62088;50.240;2.696;2023-02-02T15:04:28;9.90;81.40
73777;DHT22;62088;50.240;2.696;2023-02-02T15:09:52;9.80;81.30
73777;DHT22;62088;50.240;2.696;2023-02-02T15:12:35;9.80;81.40
73777;DHT22;62088;50.240;2.696;2023-02-02T15:15:20;9.80;81.40
73777;DHT22;62088;50.240;2.696;2023-02-02T15:18:21;9.80;81.40
73777;DHT22;62088;50.240;2.696;2023-02-02T15:20:52;9.80;81.40
73777;DHT22;62088;50.240;2.696;2023-02-02T15:23:30;9.80;81.40
73777;DHT22;62088;50.240;2.696;2023-02-02T15:26:34;9.80;81.40
73777;DHT22;62088;50.240;2.696;2023-02-02T15:29:12;9.80;81.40
73777;DHT22;62088;50.240;2.696;2023-02-02T15:31:47;9.70;81.30
73777;DHT22;62088;50.240;2.696;2023-02-02T15:34:19;9.70;81.20
73777;DHT22;62088;50.240;2.696;2023-02-02T15:36:57;9.70;81.10
73777;DHT22;62088;50.240;2.696;2023-02-02T15:39:33;9.70;81.20
73777;DHT22;62088;50.240;2.696;2023-02-02T15:42:11;9.70;81.20
73777;DHT22;62088;50.240;2.696;2023-02-02T15:44:58;9.70;81.20
73777;DHT22;62088;50.240;2.696;2023-02-02T15:47:32;9.70;81.20
73777;DHT22;62088;50.240;2.696;2023-02-02T15:50:03;9.70;81.10
73777;DHT22;62088;50.240;2.696;2023-02-02T15:52:46;9.70;81.10
73777;DHT22;62088;50.240;2.696;2023-02-02T15:55:22;9.70;81.00
73777;DHT22;62088;50.240;2.696;2023-02-02T15:57:51;9.60;81.00
73777;DHT22;62088;50.240;2.696;2023-02-02T16:00:35;9.70;81.00
73777;DHT22;62088;50.240;2.696;2023-02-02T16:03:07;9.60;81.00
73777;DHT22;62088;50.240;2.696;2023-02-02T16:08:27;9.60;81.00
73777;DHT22;62088;50.240;2.696;2023-02-02T16:11:16;9.60;81.00
73777;DHT22;62088;50.240;2.696;2023-02-02T16:14:05;9.60;81.10
73777;DHT22;62088;50.240;2.696;2023-02-02T16:16:37;9.60;81.10
73777;DHT22;62088;50.240;2.696;2023-02-02T16:21:55;9.70;81.10
73777;DHT22;62088;50.240;2.696;2023-02-02T16:24:27;9.60;81.10
73777;DHT22;62088;50.240;2.696;2023-02-02T16:26:59;9.60;81.10
73777;DHT22;62088;50.240;2.696;2023-02-02T16:29:28;9.70;81.10
73777;DHT22;62088;50.240;2.696;2023-02-02T16:31:55;9.60;81.10
73777;DHT22;62088;50.240;2.696;2023-02-02T16:37:25;9.60;81.10
73777;DHT22;62088;50.240;2.696;2023-02-02T16:40:34;9.60;81.10
73777;DHT22;62088;50.240;2.696;2023-02-02T16:43:24;9.60;81.10
73777;DHT22;62088;50.240;2.696;2023-02-02T16:46:12;9.60;81.10
73777;DHT22;62088;50.240;2.696;2023-02-02T16:48:45;9.60;81.20
73777;DHT22;62088;50.240;2.696;2023-02-02T16:51:28;9.60;81.20
73777;DHT22;62088;50.240;2.696;2023-02-02T16:56:37;9.60;81.30
73777;DHT22;62088;50.240;2.696;2023-02-02T16:59:23;9.50;81.20
73777;DHT22;62088;50.240;2.696;2023-02-02T17:01:55;9.50;81.20
73777;DHT22;62088;50.240;2.696;2023-02-02T17:04:30;9.50;81.20
73777;DHT22;62088;50.240;2.696;2023-02-02T17:07:06;9.50;81.20
73777;DHT22;62088;50.240;2.696;2023-02-02T17:09:40;9.50;81.20
73777;DHT22;62088;50.240;2.696;2023-02-02T17:15:01;9.50;81.10
73777;DHT22;62088;50.240;2.696;2023-02-02T17:17:31;9.50;81.10
73777;DHT22;62088;50.240;2.696;2023-02-02T17:19:58;9.50;81.00
73777;DHT22;62088;50.240;2.696;2023-02-02T17:22:26;9.50;81.00
73777;DHT22;62088;50.240;2.696;2023-02-02T17:24:57;9.50;81.10
73777;DHT22;62088;50.240;2.696;2023-02-02T17:27:29;9.50;81.00
73777;DHT22;62088;50.240;2.696;2023-02-02T17:30:03;9.40;81.00
73777;DHT22;62088;50.240;2.696;2023-02-02T17:32:30;9.50;80.90
73777;DHT22;62088;50.240;2.696;2023-02-02T17:34:57;9.50;80.90
73777;DHT22;62088;50.240;2.696;2023-02-02T17:37:24;9.50;80.90
73777;DHT22;62088;50.240;2.696;2023-02-02T17:39:51;9.40;80.80
73777;DHT22;62088;50.240;2.696;2023-02-02T17:44:45;9.40;80.70
73777;DHT22;62088;50.240;2.696;2023-02-02T17:47:12;9.40;80.70
73777;DHT22;62088;50.240;2.696;2023-02-02T17:49:39;9.40;80.60
73777;DHT22;62088;50.240;2.696;2023-02-02T17:52:08;9.40;80.50
73777;DHT22;62088;50.240;2.696;2023-02-02T17:54:35;9.40;80.50
73777;DHT22;62088;50.240;2.696;2023-02-02T17:57:02;9.40;80.50
73777;DHT22;62088;50.240;2.696;2023-02-02T17:59:33;9.40;80.40
73777;DHT22;62088;50.240;2.696;2023-02-02T18:02:05;9.40;80.40
73777;DHT22;62088;50.240;2.696;2023-02-02T18:04:32;9.40;80.40
73777;DHT22;62088;50.240;2.696;2023-02-02T18:06:59;9.30;80.40
73777;DHT22;62088;50.240;2.696;2023-02-02T18:09:26;9.30;80.50
73777;DHT22;62088;50.240;2.696;2023-02-02T18:11:53;9.30;80.50
73777;DHT22;62088;50.240;2.696;2023-02-02T18:14:20;9.40;80.40
73777;DHT22;62088;50.240;2.696;2023-02-02T18:16:47;9.30;80.40
73777;DHT22;62088;50.240;2.696;2023-02-02T18:19:14;9.30;80.30
73777;DHT22;62088;50.240;2.696;2023-02-02T18:21:41;9.30;80.30
73777;DHT22;62088;50.240;2.696;2023-02-02T18:24:11;9.30;80.30
73777;DHT22;62088;50.240;2.696;2023-02-02T18:26:40;9.30;80.30
73777;DHT22;62088;50.240;2.696;2023-02-02T18:29:07;9.30;80.30
73777;DHT22;62088;50.240;2.696;2023-02-02T18:31:34;9.30;80.30
73777;DHT22;62088;50.240;2.696;2023-02-02T18:34:02;9.30;80.30
73777;DHT22;62088;50.240;2.696;2023-02-02T18:36:29;9.30;80.30
73777;DHT22;62088;50.240;2.696;2023-02-02T18:38:56;9.20;80.30
73777;DHT22;62088;50.240;2.696;2023-02-02T18:41:23;9.20;80.30
73777;DHT22;62088;50.240;2.696;2023-02-02T18:43:53;9.20;80.30
73777;DHT22;62088;50.240;2.696;2023-02-02T18:46:20;9.20;80.10